Terre Haute International Hulman Field
KHUF : now visible

Airfield :











YOU CAN JOIN US ON...

 
LOGIN :

Register | Disclaimer

   EN    FR    IT 

 









Legend :    VFR   Marginal VFR   IFR   Intensive IFR   Very Intensive IFR
Visi :
Ceiling :
>= 8 km
>= 3000ft
5 to 8 km
1000 to 3000 ft
1500m to 5 km
500 to 1000 ft
800 to 1500m
200 to 500 ft
< 800m
< 200 ft
Symbols :   Thunderstorms  Fog  Heavy snow  Heavy precipitations  Wind > 20 kt







- Airport Elevation : 589 ft
- IATA code : HUF


KHUF - Terre Haute International Hulman Field

CURRENT METAR :
  • 180953Z 24003KT 9SM FEW110 24/24 A2993 RMK AO2 SLP130 T02440239

EXPIRED METARs :
  • 180853Z 00000KT 9SM BKN120 24/23 A2991 RMK AO2 SLP122 T02390233 58002
  • 180753Z 00000KT 10SM CLR 24/23 A2991 RMK AO2 SLP123 T02440233

TAF KHUF
Valid from the 18 at 06:00 until the 19 at 06:00 UTC


180520Z 1806/1906 17004KT P6SM SCT250
FM181200 20005KT P6SM BKN150
FM181300 20006KT P6SM SCT120
FM181600 21008KT P6SM SCT250
KZID FIR / North America



MET'MAP, your aeronautical weather chart ! - Copyright ORBIFLY December 2007 - Disclaimer

ORBIFLY MET'MAP TEAM :

Programming & Development : Alexandra Zaïnal
Concept & Development : Baudouin d'Aumeries
Co-Development & Prog : Marc-Olivier Méhu
Technical & hardware support : Manuel Goepfert

Contact : metmap@orbifly.com




SOURCES & CREDITS :

   NOAA       Earth
Advisory